sensor_id;sensor_type;location;lat;lon;timestamp;pressure;altitude;pressure_sealevel;temperature;humidity
69624;BME280;56843;52.020;5.670;2023-07-08T00:00:22;101594.84;;;22.29;44.70
69624;BME280;56843;52.020;5.670;2023-07-08T00:01:55;101587.84;;;22.28;44.50
69624;BME280;56843;52.020;5.670;2023-07-08T00:03:25;101587.47;;;22.26;44.71
69624;BME280;56843;52.020;5.670;2023-07-08T00:04:56;101581.59;;;22.24;44.88
69624;BME280;56843;52.020;5.670;2023-07-08T00:06:27;101590.94;;;22.23;44.79
69624;BME280;56843;52.020;5.670;2023-07-08T00:07:58;101578.13;;;22.24;44.95
69624;BME280;56843;52.020;5.670;2023-07-08T00:09:28;101580.84;;;22.24;44.82
69624;BME280;56843;52.020;5.670;2023-07-08T00:11:00;101582.78;;;22.23;44.79
69624;BME280;56843;52.020;5.670;2023-07-08T00:12:30;101583.91;;;22.22;44.75
69624;BME280;56843;52.020;5.670;2023-07-08T00:14:01;101578.47;;;22.22;44.78
69624;BME280;56843;52.020;5.670;2023-07-08T00:15:32;101578.47;;;22.22;44.61
69624;BME280;56843;52.020;5.670;2023-07-08T00:17:08;101577.31;;;22.23;44.48
69624;BME280;56843;52.020;5.670;2023-07-08T00:18:39;101567.59;;;22.22;44.65
69624;BME280;56843;52.020;5.670;2023-07-08T00:20:39;101575.00;;;22.22;45.04
69624;BME280;56843;52.020;5.670;2023-07-08T00:22:14;101568.38;;;22.19;44.66
69624;BME280;56843;52.020;5.670;2023-07-08T00:23:49;101568.38;;;22.19;44.79
69624;BME280;56843;52.020;5.670;2023-07-08T00:25:19;101562.53;;;22.17;44.83
69624;BME280;56843;52.020;5.670;2023-07-08T00:26:50;101561.38;;;22.18;44.65
69624;BME280;56843;52.020;5.670;2023-07-08T00:28:21;101566.03;;;22.18;44.79
69624;BME280;56843;52.020;5.670;2023-07-08T00:29:51;101567.97;;;22.17;45.10
69624;BME280;56843;52.020;5.670;2023-07-08T00:31:23;101560.97;;;22.16;44.71
69624;BME280;56843;52.020;5.670;2023-07-08T00:32:56;101556.72;;;22.15;44.89
69624;BME280;56843;52.020;5.670;2023-07-08T00:34:27;101559.44;;;22.15;44.66
69624;BME280;56843;52.020;5.670;2023-07-08T00:35:57;101555.13;;;22.14;44.92
69624;BME280;56843;52.020;5.670;2023-07-08T00:37:28;101552.03;;;22.16;45.13
69624;BME280;56843;52.020;5.670;2023-07-08T00:39:00;101552.81;;;22.13;44.82
69624;BME280;56843;52.020;5.670;2023-07-08T00:40:32;101557.84;;;22.14;45.13
69624;BME280;56843;52.020;5.670;2023-07-08T00:42:12;101551.63;;;22.14;44.80
69624;BME280;56843;52.020;5.670;2023-07-08T00:43:52;101550.84;;;22.13;45.12
69624;BME280;56843;52.020;5.670;2023-07-08T00:45:34;101543.84;;;22.16;44.81
69624;BME280;56843;52.020;5.670;2023-07-08T00:47:12;101545.44;;;22.17;45.20
69624;BME280;56843;52.020;5.670;2023-07-08T00:48:45;101542.72;;;22.17;44.79
69624;BME280;56843;52.020;5.670;2023-07-08T00:50:16;101539.94;;;22.13;44.68
69624;BME280;56843;52.020;5.670;2023-07-08T00:51:46;101549.28;;;22.12;45.06
69624;BME280;56843;52.020;5.670;2023-07-08T00:53:30;101545.00;;;22.11;44.96
69624;BME280;56843;52.020;5.670;2023-07-08T00:55:05;101548.13;;;22.13;45.00
69624;BME280;56843;52.020;5.670;2023-07-08T00:58:10;101538.41;;;22.16;45.10
69624;BME280;56843;52.020;5.670;2023-07-08T00:59:52;101541.53;;;22.14;45.26
69624;BME280;56843;52.020;5.670;2023-07-08T01:03:59;101539.94;;;22.10;45.34
69624;BME280;56843;52.020;5.670;2023-07-08T01:05:31;101541.50;;;22.07;45.39
69624;BME280;56843;52.020;5.670;2023-07-08T01:07:04;101548.50;;;22.08;45.42
69624;BME280;56843;52.020;5.670;2023-07-08T01:08:38;101544.22;;;22.07;45.15
69624;BME280;56843;52.020;5.670;2023-07-08T01:10:13;101537.22;;;22.06;45.34
69624;BME280;56843;52.020;5.670;2023-07-08T01:11:48;101538.38;;;22.05;45.03
69624;BME280;56843;52.020;5.670;2023-07-08T01:13:20;101537.59;;;22.05;44.98
69624;BME280;56843;52.020;5.670;2023-07-08T01:14:52;101533.69;;;22.02;45.10
69624;BME280;56843;52.020;5.670;2023-07-08T01:16:24;101539.13;;;22.02;45.09
69624;BME280;56843;52.020;5.670;2023-07-08T01:17:54;101528.66;;;22.01;45.43
69624;BME280;56843;52.020;5.670;2023-07-08T01:19:26;101526.31;;;22.03;45.51
69624;BME280;56843;52.020;5.670;2023-07-08T01:21:05;101529.81;;;22.03;45.06
69624;BME280;56843;52.020;5.670;2023-07-08T01:22:38;101527.88;;;22.04;45.32
69624;BME280;56843;52.020;5.670;2023-07-08T01:24:10;101516.63;;;22.05;44.95
69624;BME280;56843;52.020;5.670;2023-07-08T01:25:43;101520.50;;;22.04;44.96
69624;BME280;56843;52.020;5.670;2023-07-08T01:27:17;101519.69;;;22.00;45.30
69624;BME280;56843;52.020;5.670;2023-07-08T01:28:48;101518.94;;;22.00;45.63
69624;BME280;56843;52.020;5.670;2023-07-08T01:30:19;101514.66;;;21.99;45.59
69624;BME280;56843;52.020;5.670;2023-07-08T01:31:50;101516.59;;;21.98;45.28
69624;BME280;56843;52.020;5.670;2023-07-08T01:33:21;101506.50;;;21.99;45.30
69624;BME280;56843;52.020;5.670;2023-07-08T01:34:59;101520.88;;;21.99;45.57
69624;BME280;56843;52.020;5.670;2023-07-08T01:36:40;101515.44;;;21.99;45.20
69624;BME280;56843;52.020;5.670;2023-07-08T01:38:14;101516.63;;;22.02;45.49
69624;BME280;56843;52.020;5.670;2023-07-08T01:39:46;101521.28;;;22.01;45.46
69624;BME280;56843;52.020;5.670;2023-07-08T01:41:17;101526.72;;;22.01;45.14
69624;BME280;56843;52.020;5.670;2023-07-08T01:42:47;101532.53;;;22.00;45.48
69624;BME280;56843;52.020;5.670;2023-07-08T01:44:29;101515.84;;;22.01;45.50
69624;BME280;56843;52.020;5.670;2023-07-08T01:46:01;101517.75;;;22.01;45.07
69624;BME280;56843;52.020;5.670;2023-07-08T01:47:32;101515.44;;;22.03;45.39
69624;BME280;56843;52.020;5.670;2023-07-08T01:49:03;101518.56;;;22.01;45.35
69624;BME280;56843;52.020;5.670;2023-07-08T01:50:42;101521.66;;;22.00;45.11
69624;BME280;56843;52.020;5.670;2023-07-08T01:52:15;101520.47;;;21.97;45.03
69624;BME280;56843;52.020;5.670;2023-07-08T01:53:47;101515.78;;;21.98;45.43
69624;BME280;56843;52.020;5.670;2023-07-08T01:55:22;101511.53;;;22.00;45.76
69624;BME280;56843;52.020;5.670;2023-07-08T01:56:55;101504.56;;;22.03;45.39
69624;BME280;56843;52.020;5.670;2023-07-08T01:58:27;101507.31;;;22.06;45.58
69624;BME280;56843;52.020;5.670;2023-07-08T01:59:58;101501.88;;;22.06;45.04
69624;BME280;56843;52.020;5.670;2023-07-08T02:01:28;101501.88;;;22.06;45.38
69624;BME280;56843;52.020;5.670;2023-07-08T02:02:59;101501.88;;;22.06;45.19
69624;BME280;56843;52.020;5.670;2023-07-08T02:04:29;101499.16;;;22.06;45.58
69624;BME280;56843;52.020;5.670;2023-07-08T02:06:00;101504.59;;;22.06;45.51
69624;BME280;56843;52.020;5.670;2023-07-08T02:07:31;101496.78;;;22.05;45.22
69624;BME280;56843;52.020;5.670;2023-07-08T02:09:01;101491.34;;;22.05;45.31
69624;BME280;56843;52.020;5.670;2023-07-08T02:10:33;101486.31;;;22.03;45.72
69624;BME280;56843;52.020;5.670;2023-07-08T02:12:04;101492.13;;;22.02;45.54
69624;BME280;56843;52.020;5.670;2023-07-08T02:13:35;101490.56;;;22.01;45.33
69624;BME280;56843;52.020;5.670;2023-07-08T02:15:06;101491.34;;;22.01;45.35
69624;BME280;56843;52.020;5.670;2023-07-08T02:16:37;101488.25;;;21.99;45.34
69624;BME280;56843;52.020;5.670;2023-07-08T02:18:07;101484.72;;;21.99;45.36
69624;BME280;56843;52.020;5.670;2023-07-08T02:19:38;101482.78;;;21.99;45.48
69624;BME280;56843;52.020;5.670;2023-07-08T02:21:08;101485.50;;;21.99;45.55
69624;BME280;56843;52.020;5.670;2023-07-08T02:22:39;101479.69;;;22.01;45.65
69624;BME280;56843;52.020;5.670;2023-07-08T02:24:09;101488.25;;;21.99;45.93
69624;BME280;56843;52.020;5.670;2023-07-08T02:25:40;101476.97;;;22.01;45.55
69624;BME280;56843;52.020;5.670;2023-07-08T02:27:11;101466.47;;;22.03;45.78
69624;BME280;56843;52.020;5.670;2023-07-08T02:28:42;101468.84;;;22.04;45.64
69624;BME280;56843;52.020;5.670;2023-07-08T02:30:12;101482.44;;;22.04;45.77
69624;BME280;56843;52.020;5.670;2023-07-08T02:31:43;101479.72;;;22.04;45.88
69624;BME280;56843;52.020;5.670;2023-07-08T02:33:14;101477.75;;;22.05;45.76
69624;BME280;56843;52.020;5.670;2023-07-08T02:34:47;101470.75;;;22.04;45.62
69624;BME280;56843;52.020;5.670;2023-07-08T02:36:18;101471.13;;;22.02;45.87
69624;BME280;56843;52.020;5.670;2023-07-08T02:37:48;101476.97;;;22.01;45.62
69624;BME280;56843;52.020;5.670;2023-07-08T02:39:19;101478.16;;;22.03;45.90
69624;BME280;56843;52.020;5.670;2023-07-08T02:40:49;101473.09;;;22.02;46.01
69624;BME280;56843;52.020;5.670;2023-07-08T02:42:20;101469.19;;;22.03;45.46
69624;BME280;56843;52.020;5.670;2023-07-08T02:43:50;101475.41;;;22.03;45.56
69624;BME280;56843;52.020;5.670;2023-07-08T02:45:21;101460.25;;;22.02;45.45
69624;BME280;56843;52.020;5.670;2023-07-08T02:46:51;101463.75;;;22.03;45.77
69624;BME280;56843;52.020;5.670;2023-07-08T02:48:22;101456.78;;;22.02;45.63
69624;BME280;56843;52.020;5.670;2023-07-08T02:49:52;101462.56;;;22.00;45.52
69624;BME280;56843;52.020;5.670;2023-07-08T02:51:24;101468.81;;;21.97;45.63
69624;BME280;56843;52.020;5.670;2023-07-08T02:52:55;101465.31;;;21.93;46.04
69624;BME280;56843;52.020;5.670;2023-07-08T02:54:25;101467.22;;;21.92;46.04
69624;BME280;56843;52.020;5.670;2023-07-08T02:55:56;101460.22;;;21.91;45.92
69624;BME280;56843;52.020;5.670;2023-07-08T02:57:26;101466.44;;;21.92;46.09
69624;BME280;56843;52.020;5.670;2023-07-08T02:58:57;101468.78;;;21.90;46.10
69624;BME280;56843;52.020;5.670;2023-07-08T03:00:27;101460.22;;;21.88;45.89
69624;BME280;56843;52.020;5.670;2023-07-08T03:01:58;101461.75;;;21.89;46.24
69624;BME280;56843;52.020;5.670;2023-07-08T03:03:28;101464.09;;;21.87;45.78
69624;BME280;56843;52.020;5.670;2023-07-08T03:04:59;101466.81;;;21.87;45.96
69624;BME280;56843;52.020;5.670;2023-07-08T03:06:31;101462.53;;;21.86;46.17
69624;BME280;56843;52.020;5.670;2023-07-08T03:08:03;101466.41;;;21.85;45.86
69624;BME280;56843;52.020;5.670;2023-07-08T03:09:33;101465.22;;;21.82;45.97
69624;BME280;56843;52.020;5.670;2023-07-08T03:11:05;101458.22;;;21.81;45.97
69624;BME280;56843;52.020;5.670;2023-07-08T03:12:36;101468.72;;;21.79;46.06
69624;BME280;56843;52.020;5.670;2023-07-08T03:14:07;101452.75;;;21.78;45.99
69624;BME280;56843;52.020;5.670;2023-07-08T03:15:37;101455.06;;;21.76;46.45
69624;BME280;56843;52.020;5.670;2023-07-08T03:17:08;101459.72;;;21.75;46.01
69624;BME280;56843;52.020;5.670;2023-07-08T03:18:39;101459.34;;;21.73;46.41
69624;BME280;56843;52.020;5.670;2023-07-08T03:20:16;101454.69;;;21.74;46.13
69624;BME280;56843;52.020;5.670;2023-07-08T03:21:47;101462.44;;;21.72;46.44
69624;BME280;56843;52.020;5.670;2023-07-08T03:23:18;101459.72;;;21.72;46.32
69624;BME280;56843;52.020;5.670;2023-07-08T03:24:49;101454.69;;;21.70;46.33
69624;BME280;56843;52.020;5.670;2023-07-08T03:26:24;101464.78;;;21.70;46.55
69624;BME280;56843;52.020;5.670;2023-07-08T03:27:55;101465.16;;;21.72;46.14
69624;BME280;56843;52.020;5.670;2023-07-08T03:29:29;101462.44;;;21.72;46.49
69624;BME280;56843;52.020;5.670;2023-07-08T03:31:00;101472.53;;;21.71;46.30
69624;BME280;56843;52.020;5.670;2023-07-08T03:32:30;101460.91;;;21.71;46.05
69624;BME280;56843;52.020;5.670;2023-07-08T03:34:01;101468.28;;;21.70;46.52
69624;BME280;56843;52.020;5.670;2023-07-08T03:35:33;101471.00;;;21.70;46.12
69624;BME280;56843;52.020;5.670;2023-07-08T03:37:04;101474.88;;;21.69;46.52
69624;BME280;56843;52.020;5.670;2023-07-08T03:38:35;101476.78;;;21.69;46.20
69624;BME280;56843;52.020;5.670;2023-07-08T03:40:08;101467.09;;;21.68;46.15
69624;BME280;56843;52.020;5.670;2023-07-08T03:41:40;101469.03;;;21.67;46.30
69624;BME280;56843;52.020;5.670;2023-07-08T03:43:11;101472.53;;;21.68;46.45
69624;BME280;56843;52.020;5.670;2023-07-08T03:44:41;101460.09;;;21.67;46.12
69624;BME280;56843;52.020;5.670;2023-07-08T03:46:14;101465.53;;;21.67;46.40
69624;BME280;56843;52.020;5.670;2023-07-08T03:47:45;101462.41;;;21.65;46.22
69624;BME280;56843;52.020;5.670;2023-07-08T03:49:21;101466.31;;;21.64;46.37
69624;BME280;56843;52.020;5.670;2023-07-08T03:50:55;101464.72;;;21.63;46.10
69624;BME280;56843;52.020;5.670;2023-07-08T03:52:26;101465.13;;;21.61;46.54
69624;BME280;56843;52.020;5.670;2023-07-08T03:53:56;101474.06;;;21.62;46.39
69624;BME280;56843;52.020;5.670;2023-07-08T03:55:28;101465.50;;;21.60;46.74
69624;BME280;56843;52.020;5.670;2023-07-08T03:57:01;101472.09;;;21.59;46.37
69624;BME280;56843;52.020;5.670;2023-07-08T03:58:31;101468.22;;;21.60;46.47
69624;BME280;56843;52.020;5.670;2023-07-08T04:00:02;101470.16;;;21.59;46.65
69624;BME280;56843;52.020;5.670;2023-07-08T04:01:33;101469.38;;;21.59;46.53
69624;BME280;56843;52.020;5.670;2023-07-08T04:03:03;101473.25;;;21.58;46.56
69624;BME280;56843;52.020;5.670;2023-07-08T04:04:34;101470.53;;;21.58;46.45
69624;BME280;56843;52.020;5.670;2023-07-08T04:06:05;101471.69;;;21.57;46.61
69624;BME280;56843;52.020;5.670;2023-07-08T04:07:36;101471.69;;;21.57;46.87
69624;BME280;56843;52.020;5.670;2023-07-08T04:09:06;101469.78;;;21.57;46.78
69624;BME280;56843;52.020;5.670;2023-07-08T04:10:37;101477.13;;;21.57;46.94
69624;BME280;56843;52.020;5.670;2023-07-08T04:12:08;101469.78;;;21.57;46.89
69624;BME280;56843;52.020;5.670;2023-07-08T04:13:39;101474.06;;;21.62;46.65
69624;BME280;56843;52.020;5.670;2023-07-08T04:15:10;101470.16;;;21.63;46.98
69624;BME280;56843;52.020;5.670;2023-07-08T04:16:53;101471.34;;;21.62;46.81
69624;BME280;56843;52.020;5.670;2023-07-08T04:18:27;101474.06;;;21.62;46.59
69624;BME280;56843;52.020;5.670;2023-07-08T04:19:57;101476.41;;;21.63;46.58
69624;BME280;56843;52.020;5.670;2023-07-08T04:21:28;101475.66;;;21.66;46.92
69624;BME280;56843;52.020;5.670;2023-07-08T04:23:00;101472.13;;;21.66;46.70
69624;BME280;56843;52.020;5.670;2023-07-08T04:24:31;101474.84;;;21.66;46.65
69624;BME280;56843;52.020;5.670;2023-07-08T04:26:01;101473.69;;;21.67;46.71
69624;BME280;56843;52.020;5.670;2023-07-08T04:27:32;101465.53;;;21.67;46.42
69624;BME280;56843;52.020;5.670;2023-07-08T04:29:03;101469.41;;;21.66;46.09
69624;BME280;56843;52.020;5.670;2023-07-08T04:30:33;101468.25;;;21.63;46.34
69624;BME280;56843;52.020;5.670;2023-07-08T04:32:08;101469.38;;;21.62;46.64
69624;BME280;56843;52.020;5.670;2023-07-08T04:33:38;101467.81;;;21.58;46.64
69624;BME280;56843;52.020;5.670;2023-07-08T04:35:09;101468.19;;;21.56;46.76
69624;BME280;56843;52.020;5.670;2023-07-08T04:36:39;101472.09;;;21.55;47.04
69624;BME280;56843;52.020;5.670;2023-07-08T04:38:19;101469.38;;;21.55;46.91
69624;BME280;56843;52.020;5.670;2023-07-08T04:39:51;101474.81;;;21.55;46.87
69624;BME280;56843;52.020;5.670;2023-07-08T04:41:22;101473.63;;;21.53;47.23
69624;BME280;56843;52.020;5.670;2023-07-08T04:42:52;101480.22;;;21.52;46.73
69624;BME280;56843;52.020;5.670;2023-07-08T04:44:23;101477.50;;;21.52;46.83
69624;BME280;56843;52.020;5.670;2023-07-08T04:45:54;101476.31;;;21.49;47.07
69624;BME280;56843;52.020;5.670;2023-07-08T04:47:26;101479.03;;;21.49;46.88
69624;BME280;56843;52.020;5.670;2023-07-08T04:49:03;101479.81;;;21.50;47.29
69624;BME280;56843;52.020;5.670;2023-07-08T04:50:34;101484.47;;;21.49;47.10
69624;BME280;56843;52.020;5.670;2023-07-08T04:52:05;101483.72;;;21.49;47.10
69624;BME280;56843;52.020;5.670;2023-07-08T04:53:36;101490.69;;;21.50;47.22
69624;BME280;56843;52.020;5.670;2023-07-08T04:55:06;101485.63;;;21.48;47.07
69624;BME280;56843;52.020;5.670;2023-07-08T04:56:42;101482.53;;;21.50;47.20
69624;BME280;56843;52.020;5.670;2023-07-08T04:58:13;101471.28;;;21.51;46.94
69624;BME280;56843;52.020;5.670;2023-07-08T04:59:44;101482.19;;;21.55;47.26
69624;BME280;56843;52.020;5.670;2023-07-08T05:01:14;101483.72;;;21.56;47.05
69624;BME280;56843;52.020;5.670;2023-07-08T05:02:45;101481.78;;;21.56;47.19
69624;BME280;56843;52.020;5.670;2023-07-08T05:04:17;101470.53;;;21.54;47.22
69624;BME280;56843;52.020;5.670;2023-07-08T05:05:47;101471.69;;;21.53;47.30
69624;BME280;56843;52.020;5.670;2023-07-08T05:07:18;101478.28;;;21.52;47.13
69624;BME280;56843;52.020;5.670;2023-07-08T05:08:48;101475.16;;;21.54;47.22
69624;BME280;56843;52.020;5.670;2023-07-08T05:10:19;101470.53;;;21.54;47.25
69624;BME280;56843;52.020;5.670;2023-07-08T05:11:50;101469.78;;;21.57;47.38
69624;BME280;56843;52.020;5.670;2023-07-08T05:13:21;101470.97;;;21.63;47.58
69624;BME280;56843;52.020;5.670;2023-07-08T05:14:52;101473.69;;;21.67;47.02
69624;BME280;56843;52.020;5.670;2023-07-08T05:16:23;101463.97;;;21.69;47.32
69624;BME280;56843;52.020;5.670;2023-07-08T05:17:53;101467.88;;;21.68;47.26
69624;BME280;56843;52.020;5.670;2023-07-08T05:19:24;101465.53;;;21.67;47.00
69624;BME280;56843;52.020;5.670;2023-07-08T05:20:56;101469.41;;;21.69;47.18
69624;BME280;56843;52.020;5.670;2023-07-08T05:22:27;101471.34;;;21.69;47.43
69624;BME280;56843;52.020;5.670;2023-07-08T05:23:57;101473.72;;;21.70;47.23
69624;BME280;56843;52.020;5.670;2023-07-08T05:25:32;101472.53;;;21.71;46.96
69624;BME280;56843;52.020;5.670;2023-07-08T05:27:03;101465.56;;;21.74;47.31
69624;BME280;56843;52.020;5.670;2023-07-08T05:28:34;101460.16;;;21.77;47.36
69624;BME280;56843;52.020;5.670;2023-07-08T05:30:06;101459.75;;;21.79;47.02
69624;BME280;56843;52.020;5.670;2023-07-08T05:31:36;101460.94;;;21.81;47.15
69624;BME280;56843;52.020;5.670;2023-07-08T05:33:07;101466.81;;;21.83;47.33
69624;BME280;56843;52.020;5.670;2023-07-08T05:34:38;101458.25;;;21.85;47.31
69624;BME280;56843;52.020;5.670;2023-07-08T05:36:09;101463.31;;;21.86;47.35
69624;BME280;56843;52.020;5.670;2023-07-08T05:37:39;101465.66;;;21.91;47.35
69624;BME280;56843;52.020;5.670;2023-07-08T05:39:10;101468.78;;;21.93;46.77
69624;BME280;56843;52.020;5.670;2023-07-08T05:40:41;101475.41;;;21.96;47.20
69624;BME280;56843;52.020;5.670;2023-07-08T05:42:11;101473.06;;;21.98;46.70
69624;BME280;56843;52.020;5.670;2023-07-08T05:43:42;101464.53;;;22.00;47.17
69624;BME280;56843;52.020;5.670;2023-07-08T05:45:12;101464.16;;;22.01;47.10
69624;BME280;56843;52.020;5.670;2023-07-08T05:46:42;101463.38;;;22.04;46.74
69624;BME280;56843;52.020;5.670;2023-07-08T05:48:13;101464.53;;;22.07;47.20
69624;BME280;56843;52.020;5.670;2023-07-08T05:49:44;101465.72;;;22.09;47.21
69624;BME280;56843;52.020;5.670;2023-07-08T05:51:14;101470.00;;;22.14;47.25
69624;BME280;56843;52.020;5.670;2023-07-08T05:52:45;101462.66;;;22.21;47.38
69624;BME280;56843;52.020;5.670;2023-07-08T05:54:15;101469.69;;;22.33;47.38
69624;BME280;56843;52.020;5.670;2023-07-08T05:55:47;101460.34;;;22.44;46.94
69624;BME280;56843;52.020;5.670;2023-07-08T05:57:18;101462.75;;;22.56;47.04
69624;BME280;56843;52.020;5.670;2023-07-08T05:58:49;101461.59;;;22.68;46.36
69624;BME280;56843;52.020;5.670;2023-07-08T06:00:19;101469.75;;;22.79;46.32
69624;BME280;56843;52.020;5.670;2023-07-08T06:01:50;101462.75;;;22.92;46.46
69624;BME280;56843;52.020;5.670;2023-07-08T06:03:20;101461.94;;;23.05;46.56
69624;BME280;56843;52.020;5.670;2023-07-08T06:04:51;101466.97;;;23.17;45.99
69624;BME280;56843;52.020;5.670;2023-07-08T06:06:21;101467.00;;;23.28;45.99
69624;BME280;56843;52.020;5.670;2023-07-08T06:07:52;101471.66;;;23.38;45.56
69624;BME280;56843;52.020;5.670;2023-07-08T06:09:22;101472.03;;;23.47;45.66
69624;BME280;56843;52.020;5.670;2023-07-08T06:10:53;101470.03;;;23.58;45.25
69624;BME280;56843;52.020;5.670;2023-07-08T06:12:23;101482.09;;;23.68;45.22
69624;BME280;56843;52.020;5.670;2023-07-08T06:13:54;101489.06;;;23.76;45.13
69624;BME280;56843;52.020;5.670;2023-07-08T06:15:24;101485.13;;;23.84;44.54
69624;BME280;56843;52.020;5.670;2023-07-08T06:16:55;101494.47;;;23.93;44.59
69624;BME280;56843;52.020;5.670;2023-07-08T06:18:25;101482.75;;;24.00;44.38
69624;BME280;56843;52.020;5.670;2023-07-08T06:19:56;101476.47;;;24.06;44.15
69624;BME280;56843;52.020;5.670;2023-07-08T06:21:26;101488.16;;;24.14;44.24
69624;BME280;56843;52.020;5.670;2023-07-08T06:22:57;101484.97;;;24.23;44.26
69624;BME280;56843;52.020;5.670;2023-07-08T06:24:27;101488.06;;;24.32;44.42
69624;BME280;56843;52.020;5.670;2023-07-08T06:25:58;101479.41;;;24.37;44.23
69624;BME280;56843;52.020;5.670;2023-07-08T06:27:28;101487.56;;;24.44;43.90
69624;BME280;56843;52.020;5.670;2023-07-08T06:28:59;101481.28;;;24.50;44.10
69624;BME280;56843;52.020;5.670;2023-07-08T06:30:29;101480.44;;;24.57;43.84
69624;BME280;56843;52.020;5.670;2023-07-08T06:32:00;101481.63;;;24.63;43.85
69624;BME280;56843;52.020;5.670;2023-07-08T06:33:31;101489.38;;;24.68;43.78
69624;BME280;56843;52.020;5.670;2023-07-08T06:35:02;101487.00;;;24.73;43.65
69624;BME280;56843;52.020;5.670;2023-07-08T06:36:32;101490.06;;;24.79;43.27
69624;BME280;56843;52.020;5.670;2023-07-08T06:38:03;101488.84;;;24.83;43.48
69624;BME280;56843;52.020;5.670;2023-07-08T06:39:33;101474.78;;;24.89;43.43
69624;BME280;56843;52.020;5.670;2023-07-08T06:41:04;101486.03;;;24.94;43.28
69624;BME280;56843;52.020;5.670;2023-07-08T06:42:34;101482.50;;;24.97;43.19
69624;BME280;56843;52.020;5.670;2023-07-08T06:44:14;101481.66;;;25.04;43.15
69624;BME280;56843;52.020;5.670;2023-07-08T06:45:44;101483.19;;;25.08;43.10
69624;BME280;56843;52.020;5.670;2023-07-08T06:47:19;101480.44;;;25.12;42.97
69624;BME280;56843;52.020;5.670;2023-07-08T06:48:50;101479.59;;;25.15;42.87
69624;BME280;56843;52.020;5.670;2023-07-08T06:50:20;101479.59;;;25.18;42.92
69624;BME280;56843;52.020;5.670;2023-07-08T06:51:51;101477.59;;;25.22;42.96
69624;BME280;56843;52.020;5.670;2023-07-08T06:53:21;101481.09;;;25.26;42.66
69624;BME280;56843;52.020;5.670;2023-07-08T06:54:52;101484.97;;;25.29;42.95
69624;BME280;56843;52.020;5.670;2023-07-08T06:56:22;101486.47;;;25.33;42.78
69624;BME280;56843;52.020;5.670;2023-07-08T06:57:53;101488.38;;;25.36;42.82
69624;BME280;56843;52.020;5.670;2023-07-08T06:59:23;101490.69;;;25.41;42.86
69624;BME280;56843;52.020;5.670;2023-07-08T07:00:54;101483.63;;;25.44;42.68
69624;BME280;56843;52.020;5.670;2023-07-08T07:02:24;101481.25;;;25.46;42.85
69624;BME280;56843;52.020;5.670;2023-07-08T07:03:55;101478.47;;;25.49;42.55
69624;BME280;56843;52.020;5.670;2023-07-08T07:05:26;101483.16;;;25.52;42.63
69624;BME280;56843;52.020;5.670;2023-07-08T07:06:56;101479.59;;;25.56;42.35
69624;BME280;56843;52.020;5.670;2023-07-08T07:08:26;101469.81;;;25.58;42.57
69624;BME280;56843;52.020;5.670;2023-07-08T07:09:57;101472.06;;;25.63;42.47
69624;BME280;56843;52.020;5.670;2023-07-08T07:11:28;101470.91;;;25.64;41.98
69624;BME280;56843;52.020;5.670;2023-07-08T07:12:59;101478.66;;;25.69;41.39
69624;BME280;56843;52.020;5.670;2023-07-08T07:14:29;101477.44;;;25.74;41.69
69624;BME280;56843;52.020;5.670;2023-07-08T07:16:00;101489.88;;;25.78;42.03
69624;BME280;56843;52.020;5.670;2023-07-08T07:17:30;101487.88;;;25.82;42.01
69624;BME280;56843;52.020;5.670;2023-07-08T07:19:01;101485.13;;;25.86;41.64
69624;BME280;56843;52.020;5.670;2023-07-08T07:20:33;101480.00;;;25.88;41.88
69624;BME280;56843;52.020;5.670;2023-07-08T07:22:04;101476.09;;;25.89;41.74
69624;BME280;56843;52.020;5.670;2023-07-08T07:23:34;101478.41;;;25.90;41.95
69624;BME280;56843;52.020;5.670;2023-07-08T07:25:05;101477.25;;;25.91;42.08
69624;BME280;56843;52.020;5.670;2023-07-08T07:26:35;101474.88;;;25.93;42.22
69624;BME280;56843;52.020;5.670;2023-07-08T07:28:06;101473.66;;;25.94;42.13
69624;BME280;56843;52.020;5.670;2023-07-08T07:29:49;101476.00;;;25.96;42.25
69624;BME280;56843;52.020;5.670;2023-07-08T07:31:20;101481.84;;;25.98;42.27
69624;BME280;56843;52.020;5.670;2023-07-08T07:32:50;101475.94;;;25.99;42.35
69624;BME280;56843;52.020;5.670;2023-07-08T07:34:20;101482.22;;;26.00;42.51
69624;BME280;56843;52.020;5.670;2023-07-08T07:35:51;101475.53;;;26.01;42.39
69624;BME280;56843;52.020;5.670;2023-07-08T07:37:22;101472.41;;;26.02;42.37
69624;BME280;56843;52.020;5.670;2023-07-08T07:38:52;101470.41;;;26.03;42.38
69624;BME280;56843;52.020;5.670;2023-07-08T07:40:23;101472.75;;;26.04;42.31
69624;BME280;56843;52.020;5.670;2023-07-08T07:41:54;101476.25;;;26.05;42.42
69624;BME280;56843;52.020;5.670;2023-07-08T07:43:24;101480.13;;;26.07;42.46
69624;BME280;56843;52.020;5.670;2023-07-08T07:44:55;101478.97;;;26.08;42.43
69624;BME280;56843;52.020;5.670;2023-07-08T07:46:25;101474.28;;;26.09;42.36
69624;BME280;56843;52.020;5.670;2023-07-08T07:47:55;101473.84;;;26.10;42.38
69624;BME280;56843;52.020;5.670;2023-07-08T07:49:26;101469.16;;;26.11;42.43
69624;BME280;56843;52.020;5.670;2023-07-08T07:50:57;101472.25;;;26.13;42.31
69624;BME280;56843;52.020;5.670;2023-07-08T07:52:27;101468.31;;;26.14;42.30
69624;BME280;56843;52.020;5.670;2023-07-08T07:53:58;101465.56;;;26.14;42.33
69624;BME280;56843;52.020;5.670;2023-07-08T07:55:28;101463.63;;;26.14;42.67
69624;BME280;56843;52.020;5.670;2023-07-08T07:56:59;101463.19;;;26.16;42.36
69624;BME280;56843;52.020;5.670;2023-07-08T07:58:30;101456.97;;;26.15;42.74
69624;BME280;56843;52.020;5.670;2023-07-08T08:00:01;101460.47;;;26.16;42.78
69624;BME280;56843;52.020;5.670;2023-07-08T08:01:31;101459.28;;;26.17;42.43
69624;BME280;56843;52.020;5.670;2023-07-08T08:03:02;101462.03;;;26.17;42.42